KBOS/BOS METAR and TAF weather

Enter ICAO airport designator
Station Type Date Time Source
KBOS METAR 2022/06/28 15:54 UTC NOAA

KBOS 281554Z 13009KT 10SM SCT055 SCT250 23/13 A3010 RMK AO2 SLP192 T02280128


Station Type Date Time Source
KBOS Decoded METAR 2022/06/28 15:54 UTC NOAA

BOSTON LOGAN INTERNATIONAL, MA, United States (KBOS) 42-22N 071-01W 54M
Jun 28, 2022 - 11:54 AM EDT / 2022.06.28 1554 UTC
Wind: from the SE (130 degrees) at 10 MPH (9 KT):0
Visibility: 10 mile(s):0
Sky conditions: partly cloudy
Temperature: 73.0 F (22.8 C)
Dew Point: 55.0 F (12.8 C)
Relative Humidity: 53%
Pressure (altimeter): 30.1 in. Hg (1019 hPa)
ob: KBOS 281554Z 13009KT 10SM SCT055 SCT250 23/13 A3010 RMK AO2 SLP192 T02280128
cycle: 16

Station Type Date Time Source
KBOS TAF 2022/06/28 15:53 UTC NOAA

TAF
AMD KBOS 281449Z 2815/2918 33006KT P6SM FEW250
FM281600 06010KT P6SM SCT070
FM290100 25006KT P6SM FEW250

Example: see airport list